sensor_id;sensor_type;location;lat;lon;timestamp;P1;durP1;ratioP1;P2;durP2;ratioP2
39994;SDS011;25686;51.908;10.418;2023-10-08T00:01:38;24.85;;;6.70;;
39994;SDS011;25686;51.908;10.418;2023-10-08T00:03:42;17.83;;;5.70;;
39994;SDS011;25686;51.908;10.418;2023-10-08T00:05:51;14.77;;;6.20;;
39994;SDS011;25686;51.908;10.418;2023-10-08T00:07:51;20.08;;;6.22;;
39994;SDS011;25686;51.908;10.418;2023-10-08T00:09:55;16.00;;;6.03;;
39994;SDS011;25686;51.908;10.418;2023-10-08T00:11:56;16.05;;;6.20;;
39994;SDS011;25686;51.908;10.418;2023-10-08T00:14:01;18.25;;;6.40;;
39994;SDS011;25686;51.908;10.418;2023-10-08T00:16:04;23.10;;;6.55;;
39994;SDS011;25686;51.908;10.418;2023-10-08T00:18:09;17.88;;;6.05;;
39994;SDS011;25686;51.908;10.418;2023-10-08T00:20:11;18.23;;;6.38;;
39994;SDS011;25686;51.908;10.418;2023-10-08T00:22:25;17.35;;;6.20;;
39994;SDS011;25686;51.908;10.418;2023-10-08T00:24:26;19.60;;;6.53;;
39994;SDS011;25686;51.908;10.418;2023-10-08T00:26:27;16.30;;;6.45;;
39994;SDS011;25686;51.908;10.418;2023-10-08T00:28:30;15.15;;;6.45;;
39994;SDS011;25686;51.908;10.418;2023-10-08T00:30:31;20.75;;;7.32;;
39994;SDS011;25686;51.908;10.418;2023-10-08T00:32:34;20.13;;;6.72;;
39994;SDS011;25686;51.908;10.418;2023-10-08T00:34:36;15.27;;;6.85;;
39994;SDS011;25686;51.908;10.418;2023-10-08T00:36:42;11.02;;;8.20;;
39994;SDS011;25686;51.908;10.418;2023-10-08T00:38:43;10.95;;;7.95;;
39994;SDS011;25686;51.908;10.418;2023-10-08T00:40:44;10.18;;;8.02;;
39994;SDS011;25686;51.908;10.418;2023-10-08T00:42:45;5.38;;;4.60;;
39994;SDS011;25686;51.908;10.418;2023-10-08T00:44:47;4.05;;;3.50;;
39994;SDS011;25686;51.908;10.418;2023-10-08T00:46:48;5.07;;;4.38;;
39994;SDS011;25686;51.908;10.418;2023-10-08T00:48:50;7.78;;;4.78;;
39994;SDS011;25686;51.908;10.418;2023-10-08T00:50:55;5.20;;;4.53;;
39994;SDS011;25686;51.908;10.418;2023-10-08T00:53:15;5.32;;;4.82;;
39994;SDS011;25686;51.908;10.418;2023-10-08T00:55:22;4.43;;;3.75;;
39994;SDS011;25686;51.908;10.418;2023-10-08T00:57:29;4.05;;;3.72;;
39994;SDS011;25686;51.908;10.418;2023-10-08T00:59:33;4.57;;;4.18;;
39994;SDS011;25686;51.908;10.418;2023-10-08T01:01:42;4.55;;;4.15;;
39994;SDS011;25686;51.908;10.418;2023-10-08T01:03:46;4.40;;;4.00;;
39994;SDS011;25686;51.908;10.418;2023-10-08T01:05:47;5.15;;;4.40;;
39994;SDS011;25686;51.908;10.418;2023-10-08T01:07:48;4.65;;;4.18;;
39994;SDS011;25686;51.908;10.418;2023-10-08T01:09:51;3.50;;;3.20;;
39994;SDS011;25686;51.908;10.418;2023-10-08T01:12:11;3.05;;;2.75;;
39994;SDS011;25686;51.908;10.418;2023-10-08T01:14:18;2.80;;;2.58;;
39994;SDS011;25686;51.908;10.418;2023-10-08T01:16:21;2.30;;;2.10;;
39994;SDS011;25686;51.908;10.418;2023-10-08T01:18:22;0.82;;;0.82;;
39994;SDS011;25686;51.908;10.418;2023-10-08T01:20:32;2.80;;;0.90;;
39994;SDS011;25686;51.908;10.418;2023-10-08T01:22:33;2.25;;;0.70;;
39994;SDS011;25686;51.908;10.418;2023-10-08T01:24:34;0.60;;;0.60;;
39994;SDS011;25686;51.908;10.418;2023-10-08T01:26:35;0.50;;;0.50;;
39994;SDS011;25686;51.908;10.418;2023-10-08T01:28:40;0.93;;;0.60;;
39994;SDS011;25686;51.908;10.418;2023-10-08T01:30:43;0.90;;;0.90;;
39994;SDS011;25686;51.908;10.418;2023-10-08T01:32:46;0.40;;;0.40;;
39994;SDS011;25686;51.908;10.418;2023-10-08T01:34:48;1.05;;;0.55;;
39994;SDS011;25686;51.908;10.418;2023-10-08T01:36:49;0.40;;;0.40;;
39994;SDS011;25686;51.908;10.418;2023-10-08T01:38:50;0.17;;;0.17;;
39994;SDS011;25686;51.908;10.418;2023-10-08T01:40:51;0.10;;;0.10;;
39994;SDS011;25686;51.908;10.418;2023-10-08T01:42:52;1.65;;;0.10;;
39994;SDS011;25686;51.908;10.418;2023-10-08T01:44:53;0.10;;;0.10;;
39994;SDS011;25686;51.908;10.418;2023-10-08T01:46:55;0.10;;;0.10;;
39994;SDS011;25686;51.908;10.418;2023-10-08T01:48:58;0.10;;;0.10;;
39994;SDS011;25686;51.908;10.418;2023-10-08T01:51:13;0.70;;;0.20;;
39994;SDS011;25686;51.908;10.418;2023-10-08T01:53:25;0.80;;;0.10;;
39994;SDS011;25686;51.908;10.418;2023-10-08T01:55:26;0.08;;;0.08;;
39994;SDS011;25686;51.908;10.418;2023-10-08T01:57:30;0.32;;;0.10;;
39994;SDS011;25686;51.908;10.418;2023-10-08T01:59:31;0.10;;;0.10;;
39994;SDS011;25686;51.908;10.418;2023-10-08T02:01:33;0.75;;;0.10;;
39994;SDS011;25686;51.908;10.418;2023-10-08T02:03:33;0.20;;;0.20;;
39994;SDS011;25686;51.908;10.418;2023-10-08T02:05:34;0.45;;;0.20;;
39994;SDS011;25686;51.908;10.418;2023-10-08T02:07:39;0.20;;;0.20;;
39994;SDS011;25686;51.908;10.418;2023-10-08T02:09:40;0.40;;;0.40;;
39994;SDS011;25686;51.908;10.418;2023-10-08T02:11:50;0.40;;;0.40;;
39994;SDS011;25686;51.908;10.418;2023-10-08T02:13:53;0.52;;;0.40;;
39994;SDS011;25686;51.908;10.418;2023-10-08T02:15:54;0.30;;;0.30;;
39994;SDS011;25686;51.908;10.418;2023-10-08T02:17:55;0.30;;;0.30;;
39994;SDS011;25686;51.908;10.418;2023-10-08T02:19:56;0.20;;;0.20;;
39994;SDS011;25686;51.908;10.418;2023-10-08T02:21:57;0.57;;;0.20;;
39994;SDS011;25686;51.908;10.418;2023-10-08T02:23:58;0.47;;;0.43;;
39994;SDS011;25686;51.908;10.418;2023-10-08T02:25:59;0.43;;;0.43;;
39994;SDS011;25686;51.908;10.418;2023-10-08T02:28:01;2.05;;;0.60;;
39994;SDS011;25686;51.908;10.418;2023-10-08T02:30:03;0.50;;;0.50;;
39994;SDS011;25686;51.908;10.418;2023-10-08T02:32:06;0.80;;;0.80;;
39994;SDS011;25686;51.908;10.418;2023-10-08T02:34:07;2.67;;;1.27;;
39994;SDS011;25686;51.908;10.418;2023-10-08T02:36:08;3.90;;;1.55;;
39994;SDS011;25686;51.908;10.418;2023-10-08T02:38:10;4.05;;;2.25;;
39994;SDS011;25686;51.908;10.418;2023-10-08T02:40:13;4.78;;;2.85;;
39994;SDS011;25686;51.908;10.418;2023-10-08T02:42:26;6.57;;;3.53;;
39994;SDS011;25686;51.908;10.418;2023-10-08T02:44:27;6.60;;;4.05;;
39994;SDS011;25686;51.908;10.418;2023-10-08T02:46:28;4.68;;;3.67;;
39994;SDS011;25686;51.908;10.418;2023-10-08T02:48:33;8.68;;;4.35;;
39994;SDS011;25686;51.908;10.418;2023-10-08T02:50:35;8.82;;;4.78;;
39994;SDS011;25686;51.908;10.418;2023-10-08T02:52:37;7.85;;;5.05;;
39994;SDS011;25686;51.908;10.418;2023-10-08T02:54:38;6.95;;;4.47;;
39994;SDS011;25686;51.908;10.418;2023-10-08T02:56:39;10.63;;;4.30;;
39994;SDS011;25686;51.908;10.418;2023-10-08T02:58:40;10.13;;;3.90;;
39994;SDS011;25686;51.908;10.418;2023-10-08T03:00:43;6.97;;;2.95;;
39994;SDS011;25686;51.908;10.418;2023-10-08T03:02:46;9.02;;;2.92;;
39994;SDS011;25686;51.908;10.418;2023-10-08T03:04:49;9.18;;;2.83;;
39994;SDS011;25686;51.908;10.418;2023-10-08T03:06:51;8.35;;;2.85;;
39994;SDS011;25686;51.908;10.418;2023-10-08T03:08:52;9.25;;;2.88;;
39994;SDS011;25686;51.908;10.418;2023-10-08T03:10:53;7.40;;;2.42;;
39994;SDS011;25686;51.908;10.418;2023-10-08T03:13:02;8.02;;;2.33;;
39994;SDS011;25686;51.908;10.418;2023-10-08T03:15:09;9.13;;;2.13;;
39994;SDS011;25686;51.908;10.418;2023-10-08T03:17:13;9.00;;;1.75;;
39994;SDS011;25686;51.908;10.418;2023-10-08T03:19:21;4.90;;;1.60;;
39994;SDS011;25686;51.908;10.418;2023-10-08T03:21:22;6.28;;;1.70;;
39994;SDS011;25686;51.908;10.418;2023-10-08T03:23:38;8.63;;;1.85;;
39994;SDS011;25686;51.908;10.418;2023-10-08T03:25:45;10.30;;;1.80;;
39994;SDS011;25686;51.908;10.418;2023-10-08T03:27:47;5.85;;;2.00;;
39994;SDS011;25686;51.908;10.418;2023-10-08T03:29:48;8.57;;;2.05;;
39994;SDS011;25686;51.908;10.418;2023-10-08T03:31:49;10.63;;;1.90;;
39994;SDS011;25686;51.908;10.418;2023-10-08T03:33:50;6.15;;;1.73;;
39994;SDS011;25686;51.908;10.418;2023-10-08T03:35:52;6.47;;;1.83;;
39994;SDS011;25686;51.908;10.418;2023-10-08T03:37:55;7.93;;;1.90;;
39994;SDS011;25686;51.908;10.418;2023-10-08T03:40:15;7.22;;;2.10;;
39994;SDS011;25686;51.908;10.418;2023-10-08T03:42:31;7.53;;;1.80;;
39994;SDS011;25686;51.908;10.418;2023-10-08T03:44:40;5.40;;;1.30;;
39994;SDS011;25686;51.908;10.418;2023-10-08T03:46:43;7.13;;;1.50;;
39994;SDS011;25686;51.908;10.418;2023-10-08T03:48:47;7.18;;;1.73;;
39994;SDS011;25686;51.908;10.418;2023-10-08T03:50:51;6.45;;;1.70;;
39994;SDS011;25686;51.908;10.418;2023-10-08T03:53:06;5.03;;;1.40;;
39994;SDS011;25686;51.908;10.418;2023-10-08T03:55:13;6.03;;;1.48;;
39994;SDS011;25686;51.908;10.418;2023-10-08T03:57:27;9.35;;;2.08;;
39994;SDS011;25686;51.908;10.418;2023-10-08T03:59:41;6.28;;;1.70;;
39994;SDS011;25686;51.908;10.418;2023-10-08T04:01:42;6.45;;;1.50;;
39994;SDS011;25686;51.908;10.418;2023-10-08T04:03:43;5.25;;;1.80;;
39994;SDS011;25686;51.908;10.418;2023-10-08T04:05:50;7.90;;;1.88;;
39994;SDS011;25686;51.908;10.418;2023-10-08T04:08:14;5.22;;;1.60;;
39994;SDS011;25686;51.908;10.418;2023-10-08T04:10:24;7.30;;;1.60;;
39994;SDS011;25686;51.908;10.418;2023-10-08T04:12:49;4.18;;;1.40;;
39994;SDS011;25686;51.908;10.418;2023-10-08T04:14:52;6.05;;;1.65;;
39994;SDS011;25686;51.908;10.418;2023-10-08T04:16:55;5.13;;;1.20;;
39994;SDS011;25686;51.908;10.418;2023-10-08T04:18:58;4.18;;;1.40;;
39994;SDS011;25686;51.908;10.418;2023-10-08T04:21:03;6.40;;;1.60;;
39994;SDS011;25686;51.908;10.418;2023-10-08T04:23:12;4.40;;;1.48;;
39994;SDS011;25686;51.908;10.418;2023-10-08T04:25:18;6.88;;;1.77;;
39994;SDS011;25686;51.908;10.418;2023-10-08T04:27:19;6.97;;;1.55;;
39994;SDS011;25686;51.908;10.418;2023-10-08T04:29:22;8.55;;;1.65;;
39994;SDS011;25686;51.908;10.418;2023-10-08T04:31:26;5.65;;;1.52;;
39994;SDS011;25686;51.908;10.418;2023-10-08T04:33:36;5.35;;;1.23;;
39994;SDS011;25686;51.908;10.418;2023-10-08T04:35:39;6.75;;;1.40;;
39994;SDS011;25686;51.908;10.418;2023-10-08T04:37:55;6.93;;;1.70;;
39994;SDS011;25686;51.908;10.418;2023-10-08T04:39:56;4.95;;;1.50;;
39994;SDS011;25686;51.908;10.418;2023-10-08T04:41:59;8.77;;;1.67;;
39994;SDS011;25686;51.908;10.418;2023-10-08T04:44:06;5.13;;;1.50;;
39994;SDS011;25686;51.908;10.418;2023-10-08T04:46:13;8.60;;;1.60;;
39994;SDS011;25686;51.908;10.418;2023-10-08T04:48:41;7.28;;;1.63;;
39994;SDS011;25686;51.908;10.418;2023-10-08T04:50:43;9.00;;;1.60;;
39994;SDS011;25686;51.908;10.418;2023-10-08T04:52:44;6.63;;;1.40;;
39994;SDS011;25686;51.908;10.418;2023-10-08T04:54:46;5.15;;;1.70;;
39994;SDS011;25686;51.908;10.418;2023-10-08T04:56:54;8.98;;;1.45;;
39994;SDS011;25686;51.908;10.418;2023-10-08T04:58:57;7.80;;;1.42;;
39994;SDS011;25686;51.908;10.418;2023-10-08T05:00:58;6.10;;;1.55;;
39994;SDS011;25686;51.908;10.418;2023-10-08T05:03:17;5.63;;;1.40;;
39994;SDS011;25686;51.908;10.418;2023-10-08T05:05:20;6.25;;;1.50;;
39994;SDS011;25686;51.908;10.418;2023-10-08T05:07:21;6.50;;;1.40;;
39994;SDS011;25686;51.908;10.418;2023-10-08T05:09:41;4.38;;;1.30;;
39994;SDS011;25686;51.908;10.418;2023-10-08T05:11:52;6.50;;;1.60;;
39994;SDS011;25686;51.908;10.418;2023-10-08T05:14:10;5.35;;;1.27;;
39994;SDS011;25686;51.908;10.418;2023-10-08T05:16:28;8.07;;;1.67;;
39994;SDS011;25686;51.908;10.418;2023-10-08T05:19:00;6.88;;;1.45;;
39994;SDS011;25686;51.908;10.418;2023-10-08T05:21:14;7.15;;;1.50;;
39994;SDS011;25686;51.908;10.418;2023-10-08T05:23:25;7.93;;;1.45;;
39994;SDS011;25686;51.908;10.418;2023-10-08T05:25:29;7.70;;;1.48;;
39994;SDS011;25686;51.908;10.418;2023-10-08T05:27:53;8.52;;;1.45;;
39994;SDS011;25686;51.908;10.418;2023-10-08T05:30:01;3.70;;;1.40;;
39994;SDS011;25686;51.908;10.418;2023-10-08T05:32:15;6.78;;;1.50;;
39994;SDS011;25686;51.908;10.418;2023-10-08T05:34:35;9.35;;;1.58;;
39994;SDS011;25686;51.908;10.418;2023-10-08T05:36:43;6.68;;;1.60;;
39994;SDS011;25686;51.908;10.418;2023-10-08T05:38:51;5.20;;;1.20;;
39994;SDS011;25686;51.908;10.418;2023-10-08T05:41:00;10.32;;;1.70;;
39994;SDS011;25686;51.908;10.418;2023-10-08T05:43:01;5.53;;;1.35;;
39994;SDS011;25686;51.908;10.418;2023-10-08T05:45:14;4.90;;;1.50;;
39994;SDS011;25686;51.908;10.418;2023-10-08T05:47:29;6.15;;;1.65;;
39994;SDS011;25686;51.908;10.418;2023-10-08T05:49:33;6.25;;;1.55;;
39994;SDS011;25686;51.908;10.418;2023-10-08T05:51:34;6.28;;;1.13;;
39994;SDS011;25686;51.908;10.418;2023-10-08T05:53:56;5.75;;;1.45;;
39994;SDS011;25686;51.908;10.418;2023-10-08T05:56:03;6.75;;;1.40;;
39994;SDS011;25686;51.908;10.418;2023-10-08T05:58:16;6.18;;;1.40;;
39994;SDS011;25686;51.908;10.418;2023-10-08T06:00:35;7.22;;;1.50;;
39994;SDS011;25686;51.908;10.418;2023-10-08T06:02:36;5.32;;;2.03;;
39994;SDS011;25686;51.908;10.418;2023-10-08T06:04:46;7.32;;;1.38;;
39994;SDS011;25686;51.908;10.418;2023-10-08T06:07:09;6.80;;;1.55;;
39994;SDS011;25686;51.908;10.418;2023-10-08T06:09:20;5.85;;;1.42;;
39994;SDS011;25686;51.908;10.418;2023-10-08T06:11:21;8.30;;;1.30;;
39994;SDS011;25686;51.908;10.418;2023-10-08T06:13:40;5.82;;;1.42;;
39994;SDS011;25686;51.908;10.418;2023-10-08T06:15:49;5.70;;;1.58;;
39994;SDS011;25686;51.908;10.418;2023-10-08T06:17:56;8.00;;;1.48;;
39994;SDS011;25686;51.908;10.418;2023-10-08T06:20:04;8.18;;;1.70;;
39994;SDS011;25686;51.908;10.418;2023-10-08T06:22:09;5.90;;;1.42;;
39994;SDS011;25686;51.908;10.418;2023-10-08T06:24:10;5.25;;;1.30;;
39994;SDS011;25686;51.908;10.418;2023-10-08T06:26:16;8.73;;;1.38;;
39994;SDS011;25686;51.908;10.418;2023-10-08T06:28:21;5.82;;;1.70;;
39994;SDS011;25686;51.908;10.418;2023-10-08T06:30:25;4.95;;;1.20;;
39994;SDS011;25686;51.908;10.418;2023-10-08T06:32:29;3.92;;;1.20;;
39994;SDS011;25686;51.908;10.418;2023-10-08T06:34:30;6.47;;;1.88;;
39994;SDS011;25686;51.908;10.418;2023-10-08T06:36:31;6.95;;;1.63;;
39994;SDS011;25686;51.908;10.418;2023-10-08T06:38:33;5.82;;;1.50;;
39994;SDS011;25686;51.908;10.418;2023-10-08T06:40:34;5.88;;;1.33;;
39994;SDS011;25686;51.908;10.418;2023-10-08T06:42:38;6.47;;;1.30;;
39994;SDS011;25686;51.908;10.418;2023-10-08T06:44:39;6.13;;;1.30;;
39994;SDS011;25686;51.908;10.418;2023-10-08T06:46:43;5.57;;;1.65;;
39994;SDS011;25686;51.908;10.418;2023-10-08T06:48:44;7.88;;;1.27;;
39994;SDS011;25686;51.908;10.418;2023-10-08T06:50:46;4.80;;;1.30;;
39994;SDS011;25686;51.908;10.418;2023-10-08T06:52:47;4.25;;;1.25;;
39994;SDS011;25686;51.908;10.418;2023-10-08T06:54:49;8.82;;;1.67;;
39994;SDS011;25686;51.908;10.418;2023-10-08T06:56:53;6.10;;;1.20;;
39994;SDS011;25686;51.908;10.418;2023-10-08T06:58:55;5.05;;;1.42;;
39994;SDS011;25686;51.908;10.418;2023-10-08T07:00:56;3.85;;;1.30;;
39994;SDS011;25686;51.908;10.418;2023-10-08T07:02:58;4.15;;;1.20;;
39994;SDS011;25686;51.908;10.418;2023-10-08T07:05:01;5.13;;;1.33;;
39994;SDS011;25686;51.908;10.418;2023-10-08T07:07:09;5.38;;;1.10;;
39994;SDS011;25686;51.908;10.418;2023-10-08T07:09:11;6.88;;;1.40;;
39994;SDS011;25686;51.908;10.418;2023-10-08T07:11:27;4.45;;;1.10;;
39994;SDS011;25686;51.908;10.418;2023-10-08T07:13:28;4.57;;;1.10;;
39994;SDS011;25686;51.908;10.418;2023-10-08T07:15:30;7.13;;;1.05;;
39994;SDS011;25686;51.908;10.418;2023-10-08T07:17:31;6.28;;;1.40;;
39994;SDS011;25686;51.908;10.418;2023-10-08T07:19:40;7.93;;;1.20;;
39994;SDS011;25686;51.908;10.418;2023-10-08T07:21:41;6.15;;;1.15;;
39994;SDS011;25686;51.908;10.418;2023-10-08T07:23:45;3.33;;;1.23;;
39994;SDS011;25686;51.908;10.418;2023-10-08T07:26:04;3.10;;;1.30;;
39994;SDS011;25686;51.908;10.418;2023-10-08T07:28:10;3.88;;;1.23;;
39994;SDS011;25686;51.908;10.418;2023-10-08T07:30:12;4.72;;;1.50;;
39994;SDS011;25686;51.908;10.418;2023-10-08T07:32:13;7.55;;;2.10;;
39994;SDS011;25686;51.908;10.418;2023-10-08T07:34:19;6.93;;;1.58;;
39994;SDS011;25686;51.908;10.418;2023-10-08T07:36:23;4.18;;;1.35;;
39994;SDS011;25686;51.908;10.418;2023-10-08T07:38:28;6.97;;;1.30;;
39994;SDS011;25686;51.908;10.418;2023-10-08T07:40:28;10.02;;;1.85;;
39994;SDS011;25686;51.908;10.418;2023-10-08T07:42:31;5.47;;;1.50;;
39994;SDS011;25686;51.908;10.418;2023-10-08T07:44:32;4.55;;;1.45;;
39994;SDS011;25686;51.908;10.418;2023-10-08T07:46:35;5.53;;;1.25;;
39994;SDS011;25686;51.908;10.418;2023-10-08T07:48:36;7.55;;;1.40;;
39994;SDS011;25686;51.908;10.418;2023-10-08T07:50:44;8.07;;;1.00;;
39994;SDS011;25686;51.908;10.418;2023-10-08T07:52:45;5.40;;;1.08;;
39994;SDS011;25686;51.908;10.418;2023-10-08T07:54:46;4.53;;;1.05;;
39994;SDS011;25686;51.908;10.418;2023-10-08T07:56:48;3.10;;;1.00;;
39994;SDS011;25686;51.908;10.418;2023-10-08T07:58:50;6.47;;;1.58;;
39994;SDS011;25686;51.908;10.418;2023-10-08T08:00:51;5.32;;;1.00;;
39994;SDS011;25686;51.908;10.418;2023-10-08T08:02:52;5.65;;;1.10;;
39994;SDS011;25686;51.908;10.418;2023-10-08T08:04:54;2.63;;;1.17;;
39994;SDS011;25686;51.908;10.418;2023-10-08T08:06:56;5.75;;;1.25;;
39994;SDS011;25686;51.908;10.418;2023-10-08T08:09:01;7.72;;;1.30;;
39994;SDS011;25686;51.908;10.418;2023-10-08T08:11:05;4.15;;;1.30;;
39994;SDS011;25686;51.908;10.418;2023-10-08T08:13:11;4.53;;;1.35;;
39994;SDS011;25686;51.908;10.418;2023-10-08T08:15:20;7.43;;;1.27;;
39994;SDS011;25686;51.908;10.418;2023-10-08T08:17:22;5.80;;;1.40;;
39994;SDS011;25686;51.908;10.418;2023-10-08T08:19:23;4.18;;;1.15;;
39994;SDS011;25686;51.908;10.418;2023-10-08T08:21:24;4.90;;;1.20;;
39994;SDS011;25686;51.908;10.418;2023-10-08T08:23:26;4.40;;;1.30;;
39994;SDS011;25686;51.908;10.418;2023-10-08T08:25:27;7.72;;;1.30;;
39994;SDS011;25686;51.908;10.418;2023-10-08T08:27:34;3.65;;;1.13;;
39994;SDS011;25686;51.908;10.418;2023-10-08T08:29:38;3.80;;;1.08;;
39994;SDS011;25686;51.908;10.418;2023-10-08T08:31:45;4.40;;;1.25;;
39994;SDS011;25686;51.908;10.418;2023-10-08T08:33:46;4.95;;;1.45;;
39994;SDS011;25686;51.908;10.418;2023-10-08T08:35:59;5.40;;;1.00;;
39994;SDS011;25686;51.908;10.418;2023-10-08T08:38:00;3.97;;;1.23;;
39994;SDS011;25686;51.908;10.418;2023-10-08T08:40:02;3.53;;;1.13;;
39994;SDS011;25686;51.908;10.418;2023-10-08T08:42:09;5.22;;;1.13;;
39994;SDS011;25686;51.908;10.418;2023-10-08T08:44:10;3.08;;;1.20;;
39994;SDS011;25686;51.908;10.418;2023-10-08T08:46:13;2.58;;;1.15;;
39994;SDS011;25686;51.908;10.418;2023-10-08T08:48:14;7.28;;;1.23;;
39994;SDS011;25686;51.908;10.418;2023-10-08T08:50:15;3.53;;;1.00;;
39994;SDS011;25686;51.908;10.418;2023-10-08T08:52:17;5.55;;;1.30;;
39994;SDS011;25686;51.908;10.418;2023-10-08T08:54:18;5.80;;;1.40;;
39994;SDS011;25686;51.908;10.418;2023-10-08T08:56:20;5.05;;;1.33;;
39994;SDS011;25686;51.908;10.418;2023-10-08T08:58:22;6.25;;;1.40;;
39994;SDS011;25686;51.908;10.418;2023-10-08T09:00:25;3.90;;;1.27;;
39994;SDS011;25686;51.908;10.418;2023-10-08T09:02:29;5.05;;;1.27;;
39994;SDS011;25686;51.908;10.418;2023-10-08T09:04:32;5.25;;;1.30;;
39994;SDS011;25686;51.908;10.418;2023-10-08T09:06:33;5.90;;;1.42;;
39994;SDS011;25686;51.908;10.418;2023-10-08T09:08:35;5.68;;;1.63;;
39994;SDS011;25686;51.908;10.418;2023-10-08T09:10:37;7.07;;;1.40;;
39994;SDS011;25686;51.908;10.418;2023-10-08T09:12:51;3.22;;;1.20;;
39994;SDS011;25686;51.908;10.418;2023-10-08T09:14:52;5.20;;;1.27;;
39994;SDS011;25686;51.908;10.418;2023-10-08T09:16:54;4.75;;;1.58;;
39994;SDS011;25686;51.908;10.418;2023-10-08T09:18:55;5.22;;;1.27;;
39994;SDS011;25686;51.908;10.418;2023-10-08T09:20:57;2.85;;;1.48;;
39994;SDS011;25686;51.908;10.418;2023-10-08T09:23:11;4.60;;;1.33;;
39994;SDS011;25686;51.908;10.418;2023-10-08T09:25:20;5.18;;;1.42;;
39994;SDS011;25686;51.908;10.418;2023-10-08T09:27:22;6.63;;;1.60;;
39994;SDS011;25686;51.908;10.418;2023-10-08T09:29:26;5.72;;;1.38;;
39994;SDS011;25686;51.908;10.418;2023-10-08T09:31:28;4.63;;;0.95;;
39994;SDS011;25686;51.908;10.418;2023-10-08T09:33:35;6.05;;;1.52;;
39994;SDS011;25686;51.908;10.418;2023-10-08T09:35:36;6.20;;;1.60;;
39994;SDS011;25686;51.908;10.418;2023-10-08T09:37:37;4.13;;;1.38;;
39994;SDS011;25686;51.908;10.418;2023-10-08T09:39:39;4.13;;;1.55;;
39994;SDS011;25686;51.908;10.418;2023-10-08T09:41:41;5.60;;;1.38;;
39994;SDS011;25686;51.908;10.418;2023-10-08T09:43:43;7.55;;;1.40;;
39994;SDS011;25686;51.908;10.418;2023-10-08T09:45:51;8.18;;;1.50;;
39994;SDS011;25686;51.908;10.418;2023-10-08T09:47:54;6.07;;;1.35;;
39994;SDS011;25686;51.908;10.418;2023-10-08T09:51:56;4.40;;;1.30;;
39994;SDS011;25686;51.908;10.418;2023-10-08T09:56:13;4.57;;;1.08;;
39994;SDS011;25686;51.908;10.418;2023-10-08T09:58:15;6.20;;;1.35;;
39994;SDS011;25686;51.908;10.418;2023-10-08T10:00:17;5.55;;;1.60;;
39994;SDS011;25686;51.908;10.418;2023-10-08T10:02:29;5.82;;;1.58;;
39994;SDS011;25686;51.908;10.418;2023-10-08T10:04:31;8.40;;;1.60;;
39994;SDS011;25686;51.908;10.418;2023-10-08T10:06:32;5.22;;;1.65;;
39994;SDS011;25686;51.908;10.418;2023-10-08T10:08:36;4.53;;;1.52;;
39994;SDS011;25686;51.908;10.418;2023-10-08T10:10:37;8.57;;;1.83;;
39994;SDS011;25686;51.908;10.418;2023-10-08T10:12:39;4.75;;;1.60;;
39994;SDS011;25686;51.908;10.418;2023-10-08T10:14:41;5.70;;;1.70;;
39994;SDS011;25686;51.908;10.418;2023-10-08T10:16:42;3.25;;;1.38;;
39994;SDS011;25686;51.908;10.418;2023-10-08T10:18:50;5.63;;;1.40;;
39994;SDS011;25686;51.908;10.418;2023-10-08T10:20:56;4.43;;;1.45;;
39994;SDS011;25686;51.908;10.418;2023-10-08T10:23:02;7.00;;;1.63;;
39994;SDS011;25686;51.908;10.418;2023-10-08T10:25:33;5.40;;;1.45;;
39994;SDS011;25686;51.908;10.418;2023-10-08T10:30:02;6.93;;;1.65;;
39994;SDS011;25686;51.908;10.418;2023-10-08T10:32:10;6.55;;;1.50;;
39994;SDS011;25686;51.908;10.418;2023-10-08T10:34:11;10.70;;;1.70;;
39994;SDS011;25686;51.908;10.418;2023-10-08T10:36:12;6.75;;;1.65;;
39994;SDS011;25686;51.908;10.418;2023-10-08T10:38:13;4.93;;;1.67;;
39994;SDS011;25686;51.908;10.418;2023-10-08T10:40:24;6.03;;;1.77;;
39994;SDS011;25686;51.908;10.418;2023-10-08T10:42:51;3.80;;;1.30;;
39994;SDS011;25686;51.908;10.418;2023-10-08T10:44:54;5.75;;;1.58;;
39994;SDS011;25686;51.908;10.418;2023-10-08T10:46:58;9.77;;;1.63;;
39994;SDS011;25686;51.908;10.418;2023-10-08T10:49:15;4.38;;;1.50;;
39994;SDS011;25686;51.908;10.418;2023-10-08T10:51:22;4.97;;;1.60;;
39994;SDS011;25686;51.908;10.418;2023-10-08T10:53:23;7.30;;;1.33;;
39994;SDS011;25686;51.908;10.418;2023-10-08T10:55:27;7.90;;;1.80;;
39994;SDS011;25686;51.908;10.418;2023-10-08T10:57:31;8.88;;;1.85;;
39994;SDS011;25686;51.908;10.418;2023-10-08T10:59:35;9.85;;;1.92;;
39994;SDS011;25686;51.908;10.418;2023-10-08T11:01:39;7.68;;;1.58;;
39994;SDS011;25686;51.908;10.418;2023-10-08T11:03:52;5.85;;;1.60;;
39994;SDS011;25686;51.908;10.418;2023-10-08T11:05:57;7.03;;;1.83;;
39994;SDS011;25686;51.908;10.418;2023-10-08T11:08:06;8.15;;;1.90;;
39994;SDS011;25686;51.908;10.418;2023-10-08T11:10:09;5.85;;;1.63;;
39994;SDS011;25686;51.908;10.418;2023-10-08T11:12:15;6.68;;;1.70;;
39994;SDS011;25686;51.908;10.418;2023-10-08T11:14:22;5.97;;;1.70;;
39994;SDS011;25686;51.908;10.418;2023-10-08T11:16:23;5.18;;;1.63;;
39994;SDS011;25686;51.908;10.418;2023-10-08T11:18:25;5.68;;;1.60;;
39994;SDS011;25686;51.908;10.418;2023-10-08T11:20:29;6.45;;;1.83;;
39994;SDS011;25686;51.908;10.418;2023-10-08T11:22:41;7.72;;;1.70;;
39994;SDS011;25686;51.908;10.418;2023-10-08T11:24:45;7.88;;;1.88;;
39994;SDS011;25686;51.908;10.418;2023-10-08T11:26:53;7.90;;;2.00;;
39994;SDS011;25686;51.908;10.418;2023-10-08T11:29:06;7.38;;;1.70;;
39994;SDS011;25686;51.908;10.418;2023-10-08T11:31:15;6.88;;;2.00;;
39994;SDS011;25686;51.908;10.418;2023-10-08T11:33:19;6.53;;;1.70;;
39994;SDS011;25686;51.908;10.418;2023-10-08T11:35:21;4.30;;;1.40;;
39994;SDS011;25686;51.908;10.418;2023-10-08T11:37:31;7.35;;;1.70;;
39994;SDS011;25686;51.908;10.418;2023-10-08T11:39:39;6.85;;;1.63;;
39994;SDS011;25686;51.908;10.418;2023-10-08T11:41:46;9.13;;;1.80;;
39994;SDS011;25686;51.908;10.418;2023-10-08T11:43:55;4.40;;;1.50;;
39994;SDS011;25686;51.908;10.418;2023-10-08T11:45:57;8.18;;;1.67;;
39994;SDS011;25686;51.908;10.418;2023-10-08T11:47:58;6.65;;;1.55;;
39994;SDS011;25686;51.908;10.418;2023-10-08T11:50:06;7.72;;;1.48;;
39994;SDS011;25686;51.908;10.418;2023-10-08T11:52:10;6.10;;;1.40;;
39994;SDS011;25686;51.908;10.418;2023-10-08T11:54:11;9.13;;;1.30;;
39994;SDS011;25686;51.908;10.418;2023-10-08T11:56:12;5.65;;;1.60;;
39994;SDS011;25686;51.908;10.418;2023-10-08T11:58:13;5.35;;;1.30;;
39994;SDS011;25686;51.908;10.418;2023-10-08T12:00:17;6.15;;;1.25;;
39994;SDS011;25686;51.908;10.418;2023-10-08T12:02:28;5.15;;;1.15;;
39994;SDS011;25686;51.908;10.418;2023-10-08T12:04:29;7.10;;;1.45;;
39994;SDS011;25686;51.908;10.418;2023-10-08T12:06:30;6.07;;;1.23;;
39994;SDS011;25686;51.908;10.418;2023-10-08T12:08:32;3.83;;;0.95;;
39994;SDS011;25686;51.908;10.418;2023-10-08T12:10:39;7.28;;;1.35;;
39994;SDS011;25686;51.908;10.418;2023-10-08T12:12:40;3.72;;;0.98;;
39994;SDS011;25686;51.908;10.418;2023-10-08T12:14:41;6.47;;;1.25;;
39994;SDS011;25686;51.908;10.418;2023-10-08T12:16:45;4.88;;;1.35;;
39994;SDS011;25686;51.908;10.418;2023-10-08T12:18:46;6.65;;;1.20;;
39994;SDS011;25686;51.908;10.418;2023-10-08T12:20:53;3.38;;;1.15;;
39994;SDS011;25686;51.908;10.418;2023-10-08T12:22:55;8.40;;;1.70;;
39994;SDS011;25686;51.908;10.418;2023-10-08T12:24:56;6.53;;;1.50;;
39994;SDS011;25686;51.908;10.418;2023-10-08T12:26:59;6.05;;;1.35;;
39994;SDS011;25686;51.908;10.418;2023-10-08T12:29:03;4.45;;;1.27;;